Terminal Aerodrome Forecast
Issued by NWS Northern Indiana

Home | Current Version | Previous Version | Text Only | Print | Product List | Glossary On
Versions: 1 2 3 4 5 6 7 8 9 10 11 12 13 14 15 16 17 18 19
600
FTUS43 KIWX 260541
TAFFWA
TAF
KFWA 260541Z 2606/2706 29010KT P6SM -SN OVC035
     FM261100 23006KT P6SM SCT200
     FM261500 22010KT P6SM SCT150
     FM261800 21015G24KT P6SM SCT150
     FM270100 22011KT P6SM SCT200=

USA.gov is the U.S. government's official web portal to all federal, state and local government web resources and services.